createdAt,value
2023-02-27T00:00:52.360Z,4.2
2023-02-27T00:02:00.670Z,4.2
2023-02-27T00:03:09.012Z,4.2
2023-02-27T00:04:17.544Z,3.1
2023-02-27T00:05:25.846Z,3.1
2023-02-27T00:06:34.225Z,3.1
2023-02-27T00:07:42.741Z,4.2
2023-02-27T00:08:51.101Z,4.2
2023-02-27T00:09:59.383Z,4.2
2023-02-27T00:11:07.904Z,3
2023-02-27T00:12:16.218Z,3
2023-02-27T00:13:24.548Z,3
2023-02-27T00:14:33.072Z,4.4
2023-02-27T00:15:41.427Z,4.4
2023-02-27T00:16:49.696Z,4.4
2023-02-27T00:17:58.264Z,4
2023-02-27T00:19:06.591Z,4
2023-02-27T00:20:14.896Z,4
2023-02-27T00:21:23.618Z,4.1
2023-02-27T00:22:31.764Z,4.1
2023-02-27T00:23:40.063Z,4.1
2023-02-27T00:24:48.615Z,4
2023-02-27T00:25:56.898Z,4
2023-02-27T00:27:05.204Z,4
2023-02-27T00:28:13.751Z,4.7
2023-02-27T00:29:22.090Z,4.7
2023-02-27T00:30:30.491Z,4.7
2023-02-27T00:31:38.995Z,4.4
2023-02-27T00:32:47.240Z,4.4
2023-02-27T00:33:55.565Z,4.4
2023-02-27T00:35:04.100Z,3.1
2023-02-27T00:36:12.412Z,3.1
2023-02-27T00:37:20.728Z,3.1
2023-02-27T00:38:29.286Z,4.6
2023-02-27T00:39:37.586Z,4.6
2023-02-27T00:40:45.900Z,4.6
2023-02-27T00:41:54.425Z,2.9
2023-02-27T00:43:02.738Z,2.9
2023-02-27T00:44:11.048Z,2.9
2023-02-27T00:45:19.574Z,2.7
2023-02-27T00:46:27.920Z,2.7
2023-02-27T00:47:36.223Z,2.7
2023-02-27T00:48:44.752Z,5.7
2023-02-27T00:49:53.068Z,5.7
2023-02-27T00:51:01.389Z,5.7
2023-02-27T00:52:09.919Z,2.9
2023-02-27T00:53:18.244Z,2.9
2023-02-27T00:54:26.587Z,2.9
2023-02-27T00:55:35.086Z,3
2023-02-27T00:56:43.391Z,3
2023-02-27T00:57:51.767Z,3
2023-02-27T00:59:00.237Z,4.3
2023-02-27T01:00:08.557Z,4.3
2023-02-27T01:01:16.901Z,4.3
2023-02-27T01:02:25.475Z,3.9
2023-02-27T01:03:33.714Z,3.9
2023-02-27T01:04:42.034Z,3.9
2023-02-27T01:05:50.568Z,3.7
2023-02-27T01:06:58.880Z,3.7
2023-02-27T01:08:07.214Z,3.7
2023-02-27T01:09:15.736Z,4.9
2023-02-27T01:10:24.094Z,4.9
2023-02-27T01:11:32.380Z,4.9
2023-02-27T01:12:40.889Z,3.3
2023-02-27T01:13:49.210Z,3.3
2023-02-27T01:14:57.534Z,3.3
2023-02-27T01:16:06.118Z,2.9
2023-02-27T01:17:14.367Z,2.9
2023-02-27T01:18:22.692Z,2.9
2023-02-27T01:19:31.216Z,4.7
2023-02-27T01:20:39.522Z,4.7
2023-02-27T01:21:47.853Z,4.7
2023-02-27T01:22:56.372Z,5
2023-02-27T01:24:04.708Z,5
2023-02-27T01:25:13.067Z,5
2023-02-27T01:26:21.608Z,3.6
2023-02-27T01:27:29.887Z,3.6
2023-02-27T01:28:38.230Z,3.6
2023-02-27T01:29:46.749Z,4.8
2023-02-27T01:30:55.141Z,4.8
2023-02-27T01:32:03.538Z,4.8
2023-02-27T01:33:11.911Z,3.7
2023-02-27T01:34:20.254Z,3.7
2023-02-27T01:35:28.596Z,3.7
2023-02-27T01:36:37.098Z,3
2023-02-27T01:37:45.422Z,3
2023-02-27T01:38:53.767Z,3
2023-02-27T01:40:02.283Z,3.3
2023-02-27T01:41:10.582Z,3.3
2023-02-27T01:42:18.904Z,3.3
2023-02-27T01:43:27.418Z,4.1
2023-02-27T01:44:35.744Z,4.1
2023-02-27T01:45:44.139Z,4.1
2023-02-27T01:46:52.576Z,5.3
2023-02-27T01:48:00.890Z,5.3
2023-02-27T01:49:09.217Z,5.3
2023-02-27T01:50:17.762Z,6.6
2023-02-27T01:51:26.225Z,6.6
2023-02-27T01:52:34.380Z,6.6
2023-02-27T01:53:42.911Z,5.4
2023-02-27T01:54:51.209Z,5.4
2023-02-27T01:55:59.529Z,5.4
2023-02-27T01:57:08.061Z,2.6
2023-02-27T01:58:16.410Z,2.6
2023-02-27T01:59:24.723Z,2.6
2023-02-27T02:00:33.236Z,3.3
2023-02-27T02:01:41.542Z,3.3
2023-02-27T02:02:49.850Z,3.3
2023-02-27T02:03:58.393Z,2.6
2023-02-27T02:05:06.715Z,2.6
2023-02-27T02:06:15.029Z,2.6
2023-02-27T02:07:23.546Z,4.2
2023-02-27T02:08:31.866Z,4.2
2023-02-27T02:09:40.191Z,4.2
2023-02-27T02:10:48.705Z,2.9
2023-02-27T02:11:57.023Z,2.9
2023-02-27T02:13:05.343Z,2.9
2023-02-27T02:14:13.905Z,2.5
2023-02-27T02:15:22.195Z,2.5
2023-02-27T02:16:30.635Z,2.5
2023-02-27T02:17:39.049Z,3.5
2023-02-27T02:18:47.386Z,3.5
2023-02-27T02:19:55.721Z,3.5
2023-02-27T02:21:04.238Z,3.3
2023-02-27T02:22:12.551Z,3.3
2023-02-27T02:23:20.863Z,3.3
2023-02-27T02:24:29.394Z,4
2023-02-27T02:25:37.709Z,4
2023-02-27T02:26:46.021Z,4
2023-02-27T02:27:54.535Z,4
2023-02-27T02:29:02.847Z,4
2023-02-27T02:30:11.196Z,4
2023-02-27T02:31:19.790Z,3
2023-02-27T02:32:28.028Z,3
2023-02-27T02:33:36.351Z,3
2023-02-27T02:34:44.869Z,4.2
2023-02-27T02:35:53.200Z,4.2
2023-02-27T02:37:01.517Z,4.2
2023-02-27T02:38:10.053Z,5
2023-02-27T02:39:18.367Z,5
2023-02-27T02:40:26.679Z,5
2023-02-27T02:41:35.220Z,4.9
2023-02-27T02:42:43.579Z,4.9
2023-02-27T02:43:51.862Z,4.9
2023-02-27T02:45:00.391Z,4.4
2023-02-27T02:46:08.765Z,4.4
2023-02-27T02:47:17.038Z,4.4
2023-02-27T02:48:25.556Z,4.4
2023-02-27T02:49:33.869Z,4.4
2023-02-27T02:50:42.189Z,4.4
2023-02-27T02:51:50.720Z,4.5
2023-02-27T02:52:59.366Z,4.5
2023-02-27T02:54:07.344Z,4.5
2023-02-27T02:55:15.867Z,8.4
2023-02-27T02:56:24.192Z,8.4
2023-02-27T02:57:32.488Z,8.4
2023-02-27T02:58:41.026Z,4.3
2023-02-27T02:59:49.339Z,4.3
2023-02-27T03:00:57.687Z,4.3
2023-02-27T03:02:06.207Z,4.9
2023-02-27T03:03:14.503Z,4.9
2023-02-27T03:04:22.848Z,4.9
2023-02-27T03:05:31.368Z,5.3
2023-02-27T03:06:39.682Z,5.3
2023-02-27T03:07:48.026Z,5.3
2023-02-27T03:08:56.519Z,4.5
2023-02-27T03:10:04.836Z,4.5
2023-02-27T03:11:13.141Z,4.5
2023-02-27T03:12:21.674Z,4.4
2023-02-27T03:13:29.987Z,4.4
2023-02-27T03:14:38.302Z,4.4
2023-02-27T03:15:46.870Z,4.9
2023-02-27T03:16:55.154Z,4.9
2023-02-27T03:18:03.484Z,4.9
2023-02-27T03:19:11.987Z,3.6
2023-02-27T03:20:20.311Z,3.6
2023-02-27T03:21:28.891Z,3.6
2023-02-27T03:22:37.163Z,3.5
2023-02-27T03:23:45.508Z,3.5
2023-02-27T03:24:53.860Z,3.5
2023-02-27T03:26:02.358Z,4.2
2023-02-27T03:27:10.670Z,4.2
2023-02-27T03:28:18.999Z,4.2
2023-02-27T03:29:27.526Z,3.4
2023-02-27T03:30:35.916Z,3.4
2023-02-27T03:31:44.278Z,3.4
2023-02-27T03:32:52.671Z,4.7
2023-02-27T03:34:01.592Z,4.7
2023-02-27T03:35:09.336Z,4.7
2023-02-27T03:36:17.846Z,3.2
2023-02-27T03:37:26.150Z,3.2
2023-02-27T03:38:34.481Z,3.2
2023-02-27T03:39:43.011Z,3.5
2023-02-27T03:40:51.348Z,3.5
2023-02-27T03:41:59.669Z,3.5
2023-02-27T03:43:08.185Z,3.9
2023-02-27T03:44:16.503Z,3.9
2023-02-27T03:45:24.827Z,3.9
2023-02-27T03:46:33.371Z,3.6
2023-02-27T03:47:41.682Z,3.6
2023-02-27T03:48:49.985Z,3.6
2023-02-27T03:49:58.540Z,3.7
2023-02-27T03:51:06.823Z,3.7
2023-02-27T03:52:15.133Z,3.7
2023-02-27T03:53:23.664Z,4.6
2023-02-27T03:54:31.969Z,4.6
2023-02-27T03:55:40.296Z,4.6
2023-02-27T03:56:48.814Z,4.6
2023-02-27T03:57:57.136Z,4.6
2023-02-27T03:59:05.453Z,4.6
2023-02-27T04:00:13.983Z,3.2
2023-02-27T04:01:22.352Z,3.2
2023-02-27T04:02:30.630Z,3.2
2023-02-27T04:03:39.144Z,3.2
2023-02-27T04:04:47.464Z,3.2
2023-02-27T04:05:55.802Z,3.2
2023-02-27T04:07:04.301Z,4.3
2023-02-27T04:08:12.624Z,4.3
2023-02-27T04:09:20.942Z,4.3
2023-02-27T04:10:29.468Z,3.6
2023-02-27T04:11:37.774Z,3.6
2023-02-27T04:12:46.128Z,3.6
2023-02-27T04:13:54.614Z,3
2023-02-27T04:15:02.934Z,3
2023-02-27T04:16:11.278Z,3
2023-02-27T04:17:19.774Z,3.3
2023-02-27T04:18:28.084Z,3.3
2023-02-27T04:19:36.406Z,3.3
2023-02-27T04:20:44.947Z,3.4
2023-02-27T04:21:53.267Z,3.4
2023-02-27T04:23:01.559Z,3.4
2023-02-27T04:24:10.080Z,5
2023-02-27T04:25:18.435Z,5
2023-02-27T04:26:26.752Z,5
2023-02-27T04:27:35.266Z,4
2023-02-27T04:28:43.589Z,4
2023-02-27T04:29:51.912Z,4
2023-02-27T04:31:00.612Z,4.4
2023-02-27T04:32:08.814Z,4.4
2023-02-27T04:33:17.083Z,4.4
2023-02-27T04:34:25.695Z,4.4
2023-02-27T04:35:34.261Z,4.4
2023-02-27T04:36:42.648Z,4.4
2023-02-27T04:37:51.268Z,2.8
2023-02-27T04:38:59.633Z,2.8
2023-02-27T04:40:08.009Z,2.8
2023-02-27T04:41:16.585Z,4.7
2023-02-27T04:42:24.949Z,4.7
2023-02-27T04:43:33.307Z,4.7
2023-02-27T04:44:41.900Z,5
2023-02-27T04:45:50.359Z,5
2023-02-27T04:46:58.634Z,5
2023-02-27T04:48:07.138Z,4.5
2023-02-27T04:49:15.457Z,4.5
2023-02-27T04:50:23.805Z,4.5
2023-02-27T04:51:32.315Z,4.1
2023-02-27T04:52:40.611Z,4.1
2023-02-27T04:53:48.936Z,4.1
2023-02-27T04:54:57.441Z,2.8
2023-02-27T04:56:05.782Z,2.8
2023-02-27T04:57:14.058Z,2.8
2023-02-27T04:58:24.438Z,3
2023-02-27T04:59:30.885Z,3
2023-02-27T05:00:39.221Z,3
2023-02-27T05:01:47.881Z,4.4
2023-02-27T05:02:56.095Z,4.4
2023-02-27T05:04:04.398Z,4.4
2023-02-27T05:05:12.930Z,4.1
2023-02-27T05:06:21.253Z,4.1
2023-02-27T05:07:29.575Z,4.1
2023-02-27T05:08:38.106Z,4.4
2023-02-27T05:09:46.585Z,4.4
2023-02-27T05:10:54.928Z,4.4
2023-02-27T05:12:03.460Z,3.9
2023-02-27T05:13:11.783Z,3.9
2023-02-27T05:14:20.132Z,3.9
2023-02-27T05:15:28.693Z,3.3
2023-02-27T05:16:37.017Z,3.3
2023-02-27T05:17:45.379Z,3.3
2023-02-27T05:18:53.866Z,4.1
2023-02-27T05:20:02.206Z,4.1
2023-02-27T05:21:10.567Z,4.1
2023-02-27T05:22:19.119Z,7.4
2023-02-27T05:23:27.482Z,7.4
2023-02-27T05:24:35.832Z,7.4
2023-02-27T05:25:44.417Z,4.6
2023-02-27T05:26:52.687Z,4.6
2023-02-27T05:28:01.009Z,4.6
2023-02-27T05:29:09.538Z,5
2023-02-27T05:30:17.882Z,5
2023-02-27T05:31:26.426Z,5
2023-02-27T05:32:34.793Z,10.2
2023-02-27T05:33:43.053Z,10.2
2023-02-27T05:34:51.383Z,10.2
2023-02-27T05:35:59.999Z,13.4
2023-02-27T05:37:08.276Z,13.4
2023-02-27T05:38:16.646Z,13.4
2023-02-27T05:39:25.193Z,6.3
2023-02-27T05:40:33.544Z,6.3
2023-02-27T05:41:41.906Z,6.3
2023-02-27T05:42:50.417Z,32.799999
2023-02-27T05:43:58.729Z,32.799999
2023-02-27T05:45:07.070Z,32.799999
2023-02-27T05:46:15.639Z,3.6
2023-02-27T05:47:23.939Z,3.6
2023-02-27T05:48:32.282Z,3.6
2023-02-27T05:49:40.826Z,7.3
2023-02-27T05:50:49.153Z,7.3
2023-02-27T05:51:57.468Z,7.3
2023-02-27T05:53:06.000Z,5.7
2023-02-27T05:54:14.393Z,5.7
2023-02-27T05:55:22.731Z,5.7
2023-02-27T05:56:31.285Z,22.700001
2023-02-27T05:57:39.632Z,22.700001
2023-02-27T05:58:47.956Z,22.700001
2023-02-27T05:59:56.522Z,7.2
2023-02-27T06:01:04.868Z,7.2
2023-02-27T06:02:13.358Z,7.2
2023-02-27T06:03:21.882Z,6.8
2023-02-27T06:04:30.112Z,6.8
2023-02-27T06:05:38.452Z,6.8
2023-02-27T06:06:46.984Z,4.3
2023-02-27T06:07:55.324Z,4.3
2023-02-27T06:09:03.657Z,4.3
2023-02-27T06:10:12.211Z,3.9
2023-02-27T06:11:20.551Z,3.9
2023-02-27T06:12:28.900Z,3.9
2023-02-27T06:13:37.459Z,3.7
2023-02-27T06:14:45.760Z,3.7
2023-02-27T06:15:54.073Z,3.7
2023-02-27T06:17:02.615Z,4.2
2023-02-27T06:18:10.933Z,4.2
2023-02-27T06:19:19.253Z,4.2
2023-02-27T06:20:27.795Z,9.2
2023-02-27T06:21:36.142Z,9.2
2023-02-27T06:22:44.538Z,9.2
2023-02-27T06:23:53.059Z,7.1
2023-02-27T06:25:01.396Z,7.1
2023-02-27T06:26:09.738Z,7.1
2023-02-27T06:27:18.273Z,29.6
2023-02-27T06:28:26.610Z,29.6
2023-02-27T06:29:34.961Z,29.6
2023-02-27T06:30:45.313Z,4.9
2023-02-27T06:31:51.839Z,4.9
2023-02-27T06:33:00.197Z,4.9
2023-02-27T06:34:08.749Z,5
2023-02-27T06:35:17.097Z,5
2023-02-27T06:36:25.692Z,5
2023-02-27T06:37:33.984Z,4.5
2023-02-27T06:38:42.280Z,4.5
2023-02-27T06:39:50.618Z,4.5
2023-02-27T06:40:59.184Z,10.3
2023-02-27T06:42:07.471Z,10.3
2023-02-27T06:43:15.800Z,10.3
2023-02-27T06:44:24.377Z,7.7
2023-02-27T06:45:32.820Z,7.7
2023-02-27T06:46:41.281Z,7.7
2023-02-27T06:47:49.826Z,14.4
2023-02-27T06:48:58.165Z,14.4
2023-02-27T06:50:06.492Z,14.4
2023-02-27T06:51:15.053Z,212.89999
2023-02-27T06:52:23.419Z,212.89999
2023-02-27T06:53:31.752Z,212.89999
2023-02-27T06:54:40.297Z,209
2023-02-27T06:55:48.621Z,209
2023-02-27T06:56:56.985Z,209
2023-02-27T06:58:05.516Z,71
2023-02-27T06:59:13.822Z,71
2023-02-27T07:00:22.203Z,71
2023-02-27T07:01:30.908Z,14.7
2023-02-27T07:02:39.189Z,14.7
2023-02-27T07:03:47.465Z,14.7
2023-02-27T07:04:56.166Z,5.9
2023-02-27T07:06:04.428Z,5.9
2023-02-27T07:07:33.501Z,5.9
2023-02-27T07:08:21.360Z,75.699997
2023-02-27T07:09:29.723Z,75.699997
2023-02-27T07:10:38.070Z,75.699997
2023-02-27T07:11:46.609Z,59.099998
2023-02-27T07:12:54.963Z,59.099998
2023-02-27T07:14:03.341Z,59.099998
2023-02-27T07:15:11.909Z,66.099998
2023-02-27T07:16:20.341Z,66.099998
2023-02-27T07:17:28.609Z,66.099998
2023-02-27T07:18:37.134Z,46.099998
2023-02-27T07:19:45.519Z,46.099998
2023-02-27T07:20:53.859Z,46.099998
2023-02-27T07:22:02.438Z,54.200001
2023-02-27T07:23:10.825Z,54.200001
2023-02-27T07:24:19.111Z,54.200001
2023-02-27T07:25:27.642Z,8.1
2023-02-27T07:26:35.991Z,8.1
2023-02-27T07:27:44.328Z,8.1
2023-02-27T07:28:52.847Z,5.7
2023-02-27T07:30:01.231Z,5.7
2023-02-27T07:31:09.604Z,5.7
2023-02-27T07:32:18.144Z,7.6
2023-02-27T07:33:26.422Z,7.6
2023-02-27T07:34:34.714Z,7.6
2023-02-27T07:35:43.302Z,6.2
2023-02-27T07:36:51.615Z,6.2
2023-02-27T07:37:59.941Z,6.2
2023-02-27T07:39:08.482Z,15.6
2023-02-27T07:40:16.832Z,15.6
2023-02-27T07:41:30.555Z,15.6
2023-02-27T07:42:33.703Z,41.900002
2023-02-27T07:43:42.038Z,41.900002
2023-02-27T07:44:50.368Z,41.900002
2023-02-27T07:45:58.923Z,82.199997
2023-02-27T07:47:07.293Z,82.199997
2023-02-27T07:48:15.617Z,82.199997
2023-02-27T07:49:24.174Z,49.200001
2023-02-27T07:50:32.495Z,49.200001
2023-02-27T07:51:40.839Z,49.200001
2023-02-27T07:52:49.405Z,37.299999
2023-02-27T07:53:57.735Z,37.299999
2023-02-27T07:55:06.062Z,37.299999
2023-02-27T07:56:14.604Z,17.9
2023-02-27T07:57:22.942Z,17.9
2023-02-27T07:58:31.276Z,17.9
2023-02-27T07:59:39.833Z,39.599998
2023-02-27T08:00:48.166Z,39.599998
2023-02-27T08:01:56.513Z,39.599998
2023-02-27T08:03:05.091Z,9.8
2023-02-27T08:04:13.435Z,9.8
2023-02-27T08:05:21.774Z,9.8
2023-02-27T08:06:30.470Z,6.9
2023-02-27T08:07:38.703Z,6.9
2023-02-27T08:08:47.037Z,6.9
2023-02-27T08:09:55.577Z,6.4
2023-02-27T08:11:03.931Z,6.4
2023-02-27T08:12:12.260Z,6.4
2023-02-27T08:13:35.916Z,6.2
2023-02-27T08:14:29.139Z,6.2
2023-02-27T08:15:37.489Z,6.2
2023-02-27T08:16:46.018Z,5.6
2023-02-27T08:17:54.367Z,5.6
2023-02-27T08:19:02.702Z,5.6
2023-02-27T08:20:11.236Z,6.4
2023-02-27T08:21:19.600Z,6.4
2023-02-27T08:22:27.923Z,6.4
2023-02-27T08:23:36.484Z,6.7
2023-02-27T08:24:44.806Z,6.7
2023-02-27T08:25:53.135Z,6.7
2023-02-27T08:27:01.674Z,5.6
2023-02-27T08:28:10.011Z,5.6
2023-02-27T08:29:18.342Z,5.6
2023-02-27T08:30:26.884Z,4.9
2023-02-27T08:31:35.253Z,4.9
2023-02-27T08:32:43.542Z,4.9
2023-02-27T08:34:00.952Z,55
2023-02-27T08:35:00.406Z,55
2023-02-27T08:36:08.779Z,55
2023-02-27T08:37:17.302Z,52
2023-02-27T08:38:26.473Z,52
2023-02-27T08:39:33.936Z,52
2023-02-27T08:40:42.475Z,4.8
2023-02-27T08:41:50.835Z,4.8
2023-02-27T08:42:59.181Z,4.8
2023-02-27T08:44:07.737Z,4.9
2023-02-27T08:45:16.043Z,4.9
2023-02-27T08:46:24.556Z,4.9
2023-02-27T08:47:32.917Z,4.9
2023-02-27T08:48:41.242Z,4.9
2023-02-27T08:49:49.569Z,4.9
2023-02-27T08:50:58.162Z,4.8
2023-02-27T08:52:06.431Z,4.8
2023-02-27T08:53:14.818Z,4.8
2023-02-27T08:54:23.289Z,10.4
2023-02-27T08:55:31.597Z,10.4
2023-02-27T08:56:39.926Z,10.4
2023-02-27T08:57:48.491Z,11.5
2023-02-27T08:58:56.812Z,11.5
2023-02-27T09:00:05.129Z,11.5
2023-02-27T09:01:13.663Z,4.4
2023-02-27T09:02:22.008Z,4.4
2023-02-27T09:03:30.280Z,4.4
2023-02-27T09:04:38.828Z,3.7
2023-02-27T09:05:47.121Z,3.7
2023-02-27T09:06:55.447Z,3.7
2023-02-27T09:08:04.024Z,5.5
2023-02-27T09:09:12.377Z,5.5
2023-02-27T09:10:20.682Z,5.5
2023-02-27T09:11:29.663Z,4.6
2023-02-27T09:12:37.551Z,4.6
2023-02-27T09:13:45.873Z,4.6
2023-02-27T09:14:54.413Z,4.7
2023-02-27T09:16:02.730Z,4.7
2023-02-27T09:17:11.086Z,4.7
2023-02-27T09:18:19.630Z,6.4
2023-02-27T09:19:27.969Z,6.4
2023-02-27T09:20:36.313Z,6.4
2023-02-27T09:21:44.853Z,3.7
2023-02-27T09:22:53.185Z,3.7
2023-02-27T09:24:13.657Z,3.7
2023-02-27T09:25:10.061Z,3.9
2023-02-27T09:26:18.346Z,3.9
2023-02-27T09:27:26.675Z,3.9
2023-02-27T09:28:35.232Z,3.7
2023-02-27T09:29:43.551Z,3.7
2023-02-27T09:30:51.860Z,3.7
2023-02-27T09:32:00.477Z,5.1
2023-02-27T09:33:08.709Z,5.1
2023-02-27T09:34:17.013Z,5.1
2023-02-27T09:35:25.676Z,3.7
2023-02-27T09:36:33.872Z,3.7
2023-02-27T09:37:42.181Z,3.7
2023-02-27T09:38:50.704Z,3.2
2023-02-27T09:39:59.043Z,3.2
2023-02-27T09:41:07.376Z,3.2
2023-02-27T09:42:15.861Z,4.7
2023-02-27T09:43:24.275Z,4.7
2023-02-27T09:44:45.091Z,4.7
2023-02-27T09:45:41.052Z,4.3
2023-02-27T09:46:49.360Z,4.3
2023-02-27T09:47:57.691Z,4.3
2023-02-27T09:49:06.222Z,4.4
2023-02-27T09:50:14.532Z,4.4
2023-02-27T09:51:22.867Z,4.4
2023-02-27T09:52:31.404Z,4.4
2023-02-27T09:53:39.732Z,4.4
2023-02-27T09:54:48.033Z,4.4
2023-02-27T09:55:56.574Z,3.4
2023-02-27T09:57:04.915Z,3.4
2023-02-27T09:58:13.231Z,3.4
2023-02-27T09:59:21.753Z,4.5
2023-02-27T10:00:30.072Z,4.5
2023-02-27T10:01:38.391Z,4.5
2023-02-27T10:02:46.915Z,4.7
2023-02-27T10:03:55.250Z,4.7
2023-02-27T10:05:03.557Z,4.7
2023-02-27T10:06:12.100Z,5.2
2023-02-27T10:07:20.412Z,5.2
2023-02-27T10:08:28.762Z,5.2
2023-02-27T10:09:37.309Z,5.7
2023-02-27T10:10:45.632Z,5.7
2023-02-27T10:11:53.957Z,5.7
2023-02-27T10:13:02.515Z,3.3
2023-02-27T10:14:10.828Z,3.3
2023-02-27T10:15:19.157Z,3.3
2023-02-27T10:16:28.050Z,5.2
2023-02-27T10:17:36.005Z,5.2
2023-02-27T10:18:44.362Z,5.2
2023-02-27T10:19:52.861Z,3.9
2023-02-27T10:21:01.177Z,3.9
2023-02-27T10:22:09.498Z,3.9
2023-02-27T10:23:18.034Z,2.2
2023-02-27T10:24:26.382Z,2.2
2023-02-27T10:25:34.700Z,2.2
2023-02-27T10:26:43.223Z,1.9
2023-02-27T10:27:51.541Z,1.9
2023-02-27T10:28:59.883Z,1.9
2023-02-27T10:30:08.485Z,2.4
2023-02-27T10:31:16.883Z,2.4
2023-02-27T10:32:25.021Z,2.4
2023-02-27T10:33:33.534Z,3.1
2023-02-27T10:34:41.854Z,3.1
2023-02-27T10:35:50.223Z,3.1
2023-02-27T10:36:58.698Z,2.6
2023-02-27T10:38:07.001Z,2.6
2023-02-27T10:39:15.311Z,2.6
2023-02-27T10:40:23.852Z,3.1
2023-02-27T10:41:32.161Z,3.1
2023-02-27T10:42:41.719Z,3.1
2023-02-27T10:43:49.021Z,3.3
2023-02-27T10:44:57.370Z,3.3
2023-02-27T10:46:05.641Z,3.3
2023-02-27T10:47:14.162Z,3.9
2023-02-27T10:48:22.501Z,3.9
2023-02-27T10:49:30.837Z,3.9
2023-02-27T10:50:39.381Z,3.1
2023-02-27T10:51:47.690Z,3.1
2023-02-27T10:52:55.992Z,3.1
2023-02-27T10:54:04.521Z,3.6
2023-02-27T10:55:12.837Z,3.6
2023-02-27T10:56:21.142Z,3.6
2023-02-27T10:57:29.660Z,5.1
2023-02-27T10:58:37.990Z,5.1
2023-02-27T10:59:46.341Z,5.1
2023-02-27T11:00:54.877Z,4.2
2023-02-27T11:02:03.188Z,4.2
2023-02-27T11:03:11.508Z,4.2
2023-02-27T11:04:20.084Z,4.2
2023-02-27T11:05:28.361Z,4.2
2023-02-27T11:06:36.669Z,4.2
2023-02-27T11:07:45.214Z,2.9
2023-02-27T11:08:53.514Z,2.9
2023-02-27T11:10:01.836Z,2.9
2023-02-27T11:11:10.362Z,3.4
2023-02-27T11:12:18.674Z,3.4
2023-02-27T11:13:27.010Z,3.4
2023-02-27T11:14:35.523Z,2.5
2023-02-27T11:15:43.848Z,2.5
2023-02-27T11:16:52.170Z,2.5
2023-02-27T11:18:00.685Z,2.3
2023-02-27T11:19:08.999Z,2.3
2023-02-27T11:20:18.116Z,2.3
2023-02-27T11:21:27.082Z,3.3
2023-02-27T11:22:34.978Z,3.3
2023-02-27T11:23:43.294Z,3.3
2023-02-27T11:24:51.831Z,2.2
2023-02-27T11:26:00.155Z,2.2
2023-02-27T11:27:08.469Z,2.2
2023-02-27T11:28:17.000Z,2.4
2023-02-27T11:29:25.326Z,2.4
2023-02-27T11:30:33.661Z,2.4
2023-02-27T11:31:42.189Z,2.9
2023-02-27T11:32:50.617Z,2.9
2023-02-27T11:33:58.832Z,2.9
2023-02-27T11:35:07.375Z,2.9
2023-02-27T11:36:17.728Z,2.9
2023-02-27T11:37:24.007Z,2.9
2023-02-27T11:38:32.537Z,2
2023-02-27T11:39:40.861Z,2
2023-02-27T11:40:49.201Z,2
2023-02-27T11:41:57.733Z,3
2023-02-27T11:43:06.093Z,3
2023-02-27T11:44:14.345Z,3
2023-02-27T11:46:03.969Z,4.5
2023-02-27T11:46:38.218Z,4.5
2023-02-27T11:47:39.622Z,4.5
2023-02-27T11:48:48.099Z,2.1
2023-02-27T11:49:56.391Z,2.1
2023-02-27T11:51:04.722Z,2.1
2023-02-27T11:52:13.269Z,3.6
2023-02-27T11:53:21.597Z,3.6
2023-02-27T11:54:29.950Z,3.6
2023-02-27T11:55:38.436Z,3.3
2023-02-27T11:56:46.772Z,3.3
2023-02-27T11:57:55.071Z,3.3
2023-02-27T11:59:03.617Z,2.7
2023-02-27T12:00:11.921Z,2.7
2023-02-27T12:01:20.243Z,2.7
2023-02-27T12:02:28.804Z,2.8
2023-02-27T12:03:37.122Z,2.8
2023-02-27T12:04:45.442Z,2.8
2023-02-27T12:05:53.967Z,2.6
2023-02-27T12:07:02.273Z,2.6
2023-02-27T12:08:10.592Z,2.6
2023-02-27T12:09:19.105Z,4.1
2023-02-27T12:10:27.416Z,4.1
2023-02-27T12:11:35.726Z,4.1
2023-02-27T12:12:44.248Z,4.5
2023-02-27T12:13:52.576Z,4.5
2023-02-27T12:15:01.143Z,4.5
2023-02-27T12:16:09.591Z,4.3
2023-02-27T12:17:18.071Z,4.3
2023-02-27T12:18:26.418Z,4.3
2023-02-27T12:19:35.010Z,3.9
2023-02-27T12:20:43.352Z,3.9
2023-02-27T12:21:51.879Z,3.9
2023-02-27T12:23:00.447Z,4.3
2023-02-27T12:24:08.776Z,4.3
2023-02-27T12:25:17.111Z,4.3
2023-02-27T12:26:25.958Z,3.5
2023-02-27T12:27:33.989Z,3.5
2023-02-27T12:28:42.319Z,3.5
2023-02-27T12:29:50.855Z,6.5
2023-02-27T12:30:59.191Z,6.5
2023-02-27T12:32:07.699Z,6.5
2023-02-27T12:33:16.021Z,87.199997
2023-02-27T12:34:24.353Z,87.199997
2023-02-27T12:35:32.737Z,87.199997
2023-02-27T12:36:41.253Z,38.400002
2023-02-27T12:37:49.658Z,38.400002
2023-02-27T12:38:57.953Z,38.400002
2023-02-27T12:40:06.576Z,5.2
2023-02-27T12:41:14.975Z,5.2
2023-02-27T12:42:23.339Z,5.2
2023-02-27T12:43:31.909Z,4.8
2023-02-27T12:44:40.282Z,4.8
2023-02-27T12:45:48.723Z,4.8
2023-02-27T12:46:57.234Z,4
2023-02-27T12:48:05.601Z,4
2023-02-27T12:49:13.980Z,4
2023-02-27T12:50:22.580Z,3.6
2023-02-27T12:51:30.953Z,3.6
2023-02-27T12:52:39.459Z,3.6
2023-02-27T12:53:48.067Z,2.7
2023-02-27T12:54:56.473Z,2.7
2023-02-27T12:56:04.842Z,2.7
2023-02-27T12:57:13.400Z,3.9
2023-02-27T12:58:21.743Z,3.9
2023-02-27T12:59:30.180Z,3.9
2023-02-27T13:00:38.756Z,3.9
2023-02-27T13:01:47.305Z,3.9
2023-02-27T13:02:55.595Z,3.9
2023-02-27T13:04:04.268Z,5.2
2023-02-27T13:05:12.633Z,5.2
2023-02-27T13:06:21.070Z,5.2
2023-02-27T13:07:29.766Z,3.4
2023-02-27T13:08:38.149Z,3.4
2023-02-27T13:09:46.623Z,3.4
2023-02-27T13:10:55.225Z,5.1
2023-02-27T13:12:03.622Z,5.1
2023-02-27T13:13:12.035Z,5.1
2023-02-27T13:14:20.596Z,5.4
2023-02-27T13:15:28.982Z,5.4
2023-02-27T13:16:37.407Z,5.4
2023-02-27T13:17:45.910Z,4.7
2023-02-27T13:18:54.278Z,4.7
2023-02-27T13:20:02.648Z,4.7
2023-02-27T13:21:11.243Z,5.9
2023-02-27T13:22:19.683Z,5.9
2023-02-27T13:23:28.064Z,5.9
2023-02-27T13:24:36.658Z,4.8
2023-02-27T13:25:45.037Z,4.8
2023-02-27T13:26:53.412Z,4.8
2023-02-27T13:28:01.965Z,3.3
2023-02-27T13:29:10.356Z,3.3
2023-02-27T13:30:18.743Z,3.3
2023-02-27T13:31:27.552Z,4.8
2023-02-27T13:32:43.441Z,4.8
2023-02-27T13:33:44.103Z,4.8
2023-02-27T13:34:52.676Z,3.9
2023-02-27T13:36:01.098Z,3.9
2023-02-27T13:37:09.554Z,3.9
2023-02-27T13:38:18.027Z,3.6
2023-02-27T13:39:26.437Z,3.6
2023-02-27T13:40:34.810Z,3.6
2023-02-27T13:41:43.381Z,6.2
2023-02-27T13:42:51.767Z,6.2
2023-02-27T13:44:00.140Z,6.2
2023-02-27T13:45:08.716Z,4.1
2023-02-27T13:46:17.204Z,4.1
2023-02-27T13:47:25.468Z,4.1
2023-02-27T13:48:34.056Z,3.8
2023-02-27T13:49:42.455Z,3.8
2023-02-27T13:50:50.832Z,3.8
2023-02-27T13:51:59.745Z,3.1
2023-02-27T13:53:08.015Z,3.1
2023-02-27T13:54:16.134Z,3.1
2023-02-27T13:55:24.704Z,3.4
2023-02-27T13:56:33.110Z,3.4
2023-02-27T13:57:41.430Z,3.4
2023-02-27T13:58:50.017Z,2.9
2023-02-27T13:59:58.465Z,2.9
2023-02-27T14:01:06.906Z,2.9
2023-02-27T14:02:15.493Z,4.6
2023-02-27T14:03:23.872Z,4.6
2023-02-27T14:04:32.268Z,4.6
2023-02-27T14:05:40.813Z,3.2
2023-02-27T14:06:49.202Z,3.2
2023-02-27T14:07:57.616Z,3.2
2023-02-27T14:09:14.820Z,3.6
2023-02-27T14:10:14.635Z,3.6
2023-02-27T14:11:23.006Z,3.6
2023-02-27T14:12:43.884Z,2.6
2023-02-27T14:13:39.948Z,2.6
2023-02-27T14:14:48.298Z,2.6
2023-02-27T14:15:57.007Z,4.4
2023-02-27T14:17:05.273Z,4.4
2023-02-27T14:18:22.903Z,4.4
2023-02-27T14:19:22.219Z,3.3
2023-02-27T14:20:30.582Z,3.3
2023-02-27T14:21:38.973Z,3.3
2023-02-27T14:22:47.542Z,3.1
2023-02-27T14:23:55.912Z,3.1
2023-02-27T14:25:04.296Z,3.1
2023-02-27T14:26:12.896Z,2.5
2023-02-27T14:27:21.246Z,2.5
2023-02-27T14:28:29.606Z,2.5
2023-02-27T14:29:38.177Z,3.9
2023-02-27T15:03:11.054Z,0
2023-02-27T15:04:19.274Z,0
2023-02-27T15:05:27.925Z,0
2023-02-27T15:06:36.898Z,2.8
2023-02-27T15:07:45.686Z,2.8
2023-02-27T15:08:54.067Z,2.8
2023-02-27T15:10:04.441Z,3
2023-02-27T15:11:11.072Z,3
2023-02-27T15:12:19.466Z,3
2023-02-27T15:13:28.047Z,3.4
2023-02-27T15:14:36.594Z,3.4
2023-02-27T15:15:44.890Z,3.4
2023-02-27T15:16:55.598Z,4.1
2023-02-27T15:18:01.869Z,4.1
2023-02-27T15:19:10.256Z,4.1
2023-02-27T15:20:18.816Z,2.4
2023-02-27T15:21:27.218Z,2.4
2023-02-27T15:22:39.264Z,2.4
2023-02-27T15:23:44.252Z,2.6
2023-02-27T15:24:53.297Z,2.6
2023-02-27T15:26:01.493Z,2.6
2023-02-27T15:27:10.119Z,3.1
2023-02-27T15:28:18.542Z,3.1
2023-02-27T15:29:26.928Z,3.1
2023-02-27T15:30:35.552Z,4.6
2023-02-27T15:31:44.104Z,4.6
2023-02-27T15:32:54.763Z,4.6
2023-02-27T15:34:00.898Z,2.7
2023-02-27T15:35:09.346Z,2.7
2023-02-27T15:36:17.721Z,2.7
2023-02-27T15:37:26.357Z,3.6
2023-02-27T15:38:34.753Z,3.6
2023-02-27T15:39:44.006Z,3.6
2023-02-27T15:40:51.717Z,2.5
2023-02-27T15:42:00.118Z,2.5
2023-02-27T15:43:08.480Z,2.5
2023-02-27T15:44:17.097Z,2.3
2023-02-27T15:45:25.484Z,2.3
2023-02-27T15:46:33.939Z,2.3
2023-02-27T15:47:43.999Z,3.1
2023-02-27T15:48:50.867Z,3.1
2023-02-27T15:49:59.243Z,3.1
2023-02-27T15:51:07.853Z,3.1
2023-02-27T15:52:16.196Z,3.1
2023-02-27T15:53:24.586Z,3.1
2023-02-27T15:54:33.157Z,2.6
2023-02-27T15:55:41.542Z,2.6
2023-02-27T15:56:49.960Z,2.6
2023-02-27T15:58:03.019Z,2.6
2023-02-27T15:59:06.909Z,2.6
2023-02-27T16:00:15.276Z,2.6
2023-02-27T16:01:23.865Z,2.8
2023-02-27T16:02:32.341Z,2.8
2023-02-27T16:03:40.619Z,2.8
2023-02-27T16:04:49.181Z,2.2
2023-02-27T16:05:57.602Z,2.2
2023-02-27T16:07:05.945Z,2.2
2023-02-27T16:08:14.500Z,2.4